createdAt,value
2018-06-20T00:02:05.426Z,91.82
2018-06-20T00:05:09.436Z,91.79
2018-06-20T00:08:13.174Z,91.70
2018-06-20T00:11:16.820Z,91.65
2018-06-20T00:14:20.477Z,91.77
2018-06-20T00:17:24.136Z,91.51
2018-06-20T00:20:27.781Z,91.42
2018-06-20T00:23:31.356Z,91.64
2018-06-20T00:26:35.052Z,91.72
2018-06-20T00:29:38.762Z,91.76
2018-06-20T00:32:42.353Z,91.77
2018-06-20T00:35:45.981Z,91.81
2018-06-20T00:38:49.665Z,91.85
2018-06-20T00:41:53.331Z,92.00
2018-06-20T00:44:56.901Z,91.82
2018-06-20T00:48:00.620Z,91.86
2018-06-20T00:51:04.227Z,91.81
2018-06-20T00:54:07.847Z,92.03
2018-06-20T00:57:11.518Z,91.95
2018-06-20T01:00:15.202Z,92.03
2018-06-20T01:03:18.915Z,91.90
2018-06-20T01:06:22.917Z,91.90
2018-06-20T01:09:26.615Z,91.66
2018-06-20T01:12:30.458Z,91.68
2018-06-20T01:15:34.168Z,91.79
2018-06-20T01:18:37.736Z,91.62
2018-06-20T01:21:41.501Z,91.70
2018-06-20T01:24:45.263Z,91.69
2018-06-20T01:27:48.868Z,91.73
2018-06-20T01:30:53.278Z,91.89
2018-06-20T01:33:57.046Z,91.91
2018-06-20T01:37:00.728Z,91.68
2018-06-20T01:40:04.468Z,91.68
2018-06-20T01:43:08.273Z,91.08
2018-06-20T01:46:11.875Z,91.40
2018-06-20T01:49:15.454Z,91.53
2018-06-20T01:52:19.162Z,91.59
2018-06-20T01:55:22.838Z,91.47
2018-06-20T01:58:26.527Z,90.66
2018-06-20T02:01:30.113Z,91.17
2018-06-20T02:04:33.723Z,91.70
2018-06-20T02:07:37.437Z,91.69
2018-06-20T02:10:41.173Z,91.64
2018-06-20T02:13:44.788Z,91.86
2018-06-20T02:16:48.493Z,91.81
2018-06-20T02:19:52.142Z,92.09
2018-06-20T02:22:55.786Z,92.05
2018-06-20T02:25:59.606Z,92.00
2018-06-20T02:29:03.206Z,92.00
2018-06-20T02:32:06.853Z,92.10
2018-06-20T02:35:10.529Z,92.16
2018-06-20T02:38:14.224Z,92.15
2018-06-20T02:41:17.845Z,92.16
2018-06-20T02:44:21.811Z,92.20
2018-06-20T02:47:30.427Z,92.21
2018-06-20T02:50:34.133Z,92.07
2018-06-20T02:53:37.754Z,91.74
2018-06-20T02:56:41.317Z,91.90
2018-06-20T02:59:45.034Z,92.07
2018-06-20T03:02:48.722Z,91.87
2018-06-20T03:05:52.468Z,91.94
2018-06-20T03:09:02.089Z,91.83
2018-06-20T03:12:05.805Z,91.84
2018-06-20T03:15:09.469Z,91.77
2018-06-20T03:18:13.119Z,91.60
2018-06-20T03:21:16.802Z,91.44
2018-06-20T03:24:20.589Z,91.32
2018-06-20T03:27:24.216Z,91.26
2018-06-20T03:30:27.854Z,91.29
2018-06-20T03:33:31.463Z,91.46
2018-06-20T03:36:35.260Z,91.53
2018-06-20T03:39:38.918Z,91.25
2018-06-20T03:42:42.490Z,91.16
2018-06-20T03:45:46.188Z,91.19
2018-06-20T03:48:49.875Z,91.21
2018-06-20T03:51:53.463Z,91.22
2018-06-20T03:54:57.258Z,91.21
2018-06-20T03:58:00.980Z,91.13
2018-06-20T04:01:04.664Z,91.23
2018-06-20T04:04:08.344Z,91.08
2018-06-20T04:07:12.028Z,90.90
2018-06-20T04:10:15.630Z,90.84
2018-06-20T04:13:19.374Z,90.04
2018-06-20T04:16:23.108Z,89.41
2018-06-20T04:19:26.964Z,87.52
2018-06-20T04:22:30.824Z,83.88
2018-06-20T04:25:34.570Z,79.71
2018-06-20T04:28:38.585Z,75.49
2018-06-20T04:31:42.164Z,73.34
2018-06-20T04:34:45.928Z,70.52
2018-06-20T04:37:49.688Z,67.54
2018-06-20T04:40:53.328Z,65.74
2018-06-20T04:43:57.000Z,68.91
2018-06-20T04:47:00.714Z,73.69
2018-06-20T04:50:04.545Z,75.48
2018-06-20T04:53:08.330Z,78.74
2018-06-20T04:56:11.915Z,78.90
2018-06-20T04:59:15.548Z,78.66
2018-06-20T05:02:19.218Z,81.28
2018-06-20T05:05:22.960Z,81.12
2018-06-20T05:08:26.599Z,82.40
2018-06-20T05:11:30.734Z,81.80
2018-06-20T05:14:34.383Z,82.76
2018-06-20T05:17:38.076Z,83.28
2018-06-20T05:20:41.805Z,83.53
2018-06-20T05:23:45.600Z,83.33
2018-06-20T05:26:49.249Z,85.07
2018-06-20T05:29:55.815Z,84.19
2018-06-20T05:33:00.344Z,84.03
2018-06-20T05:36:04.050Z,84.27
2018-06-20T05:39:09.543Z,83.46
2018-06-20T05:42:13.214Z,82.33
2018-06-20T05:45:16.918Z,82.25
2018-06-20T05:48:20.601Z,81.97
2018-06-20T05:51:24.189Z,82.81
2018-06-20T05:54:27.786Z,82.98
2018-06-20T05:57:31.442Z,83.08
2018-06-20T06:00:35.079Z,83.04
2018-06-20T06:03:38.656Z,83.67
2018-06-20T06:06:42.390Z,82.05
2018-06-20T06:09:46.006Z,82.05
2018-06-20T06:12:49.621Z,82.70
2018-06-20T06:15:53.336Z,82.25
2018-06-20T06:18:57.198Z,82.40
2018-06-20T06:22:00.725Z,81.33
2018-06-20T06:25:04.571Z,81.95
2018-06-20T06:28:08.100Z,79.92
2018-06-20T06:31:11.764Z,80.95
2018-06-20T06:34:15.361Z,79.52
2018-06-20T06:37:18.979Z,80.74
2018-06-20T06:40:22.567Z,79.42
2018-06-20T06:43:26.195Z,79.58
2018-06-20T06:46:29.912Z,78.51
2018-06-20T06:49:33.527Z,78.86
2018-06-20T06:52:37.211Z,78.86
2018-06-20T06:55:40.892Z,78.80
2018-06-20T06:58:44.490Z,78.66
2018-06-20T07:01:48.272Z,78.40
2018-06-20T07:04:51.885Z,78.09
2018-06-20T07:07:55.601Z,77.46
2018-06-20T07:10:59.256Z,77.50
2018-06-20T07:14:02.892Z,76.76
2018-06-20T07:17:06.650Z,77.58
2018-06-20T07:20:10.605Z,76.53
2018-06-20T07:23:14.191Z,77.21
2018-06-20T07:26:17.986Z,77.28
2018-06-20T07:29:21.748Z,76.94
2018-06-20T07:32:25.463Z,77.21
2018-06-20T07:35:29.304Z,77.23
2018-06-20T07:38:32.801Z,76.07
2018-06-20T07:41:36.881Z,75.23
2018-06-20T07:44:40.517Z,74.68
2018-06-20T07:47:44.170Z,74.68
2018-06-20T07:50:47.909Z,73.02
2018-06-20T07:53:51.546Z,72.19
2018-06-20T07:56:55.255Z,72.75
2018-06-20T08:00:04.020Z,69.30
2018-06-20T08:03:14.892Z,69.44
2018-06-20T08:06:23.712Z,70.76
2018-06-20T08:09:32.504Z,69.60
2018-06-20T08:12:41.327Z,70.66
2018-06-20T08:15:50.256Z,70.37
2018-06-20T08:19:58.912Z,70.23
2018-06-20T08:23:02.568Z,67.40
2018-06-20T08:26:06.511Z,67.65
2018-06-20T08:29:10.082Z,68.06
2018-06-20T08:32:13.942Z,66.17
2018-06-20T08:35:17.631Z,64.40
2018-06-20T08:38:21.234Z,64.03
2018-06-20T08:41:24.932Z,61.71
2018-06-20T08:44:28.576Z,61.13
2018-06-20T08:47:32.233Z,61.52
2018-06-20T08:50:35.842Z,62.72
2018-06-20T08:53:39.602Z,64.27
2018-06-20T08:56:43.398Z,63.91
2018-06-20T08:59:47.213Z,64.94
2018-06-20T09:02:50.883Z,63.95
2018-06-20T09:05:59.788Z,63.97
2018-06-20T09:09:08.755Z,64.93
2018-06-20T09:12:17.650Z,63.59
2018-06-20T09:15:26.796Z,64.73
2018-06-20T09:18:35.776Z,67.25
2018-06-20T09:21:39.413Z,67.45
2018-06-20T09:24:43.229Z,67.67
2018-06-20T09:27:46.831Z,65.99
2018-06-20T09:30:50.466Z,64.83
2018-06-20T09:33:54.097Z,64.03
2018-06-20T09:36:57.811Z,64.74
2018-06-20T09:40:01.539Z,63.42
2018-06-20T09:43:05.289Z,65.83
2018-06-20T09:46:08.892Z,62.57
2018-06-20T09:49:12.612Z,60.90
2018-06-20T09:52:16.244Z,60.78
2018-06-20T09:55:19.826Z,62.52
2018-06-20T09:58:23.557Z,62.65
2018-06-20T10:01:32.403Z,61.97
2018-06-20T10:04:41.200Z,59.61
2018-06-20T10:07:50.207Z,61.28
2018-06-20T10:10:59.061Z,59.83
2018-06-20T10:14:03.100Z,60.93
2018-06-20T10:17:06.727Z,59.08
2018-06-20T10:20:41.133Z,58.49
2018-06-20T10:23:44.924Z,57.75
2018-06-20T10:26:48.551Z,59.24
2018-06-20T10:29:52.198Z,58.73
2018-06-20T10:32:55.792Z,58.45
2018-06-20T10:35:59.570Z,56.90
2018-06-20T10:39:03.462Z,57.51
2018-06-20T10:42:07.153Z,57.01
2018-06-20T10:45:15.996Z,58.09
2018-06-20T10:48:19.688Z,57.56
2018-06-20T10:51:23.299Z,56.94
2018-06-20T10:54:26.899Z,56.53
2018-06-20T10:57:35.737Z,56.75
2018-06-20T11:00:44.588Z,56.21
2018-06-20T11:03:53.376Z,55.79
2018-06-20T11:07:02.350Z,55.92
2018-06-20T11:10:11.104Z,55.41
2018-06-20T11:13:21.024Z,57.60
2018-06-20T11:16:24.710Z,55.04
2018-06-20T11:19:28.525Z,56.05
2018-06-20T11:22:32.115Z,57.56
2018-06-20T11:25:35.878Z,56.82
2018-06-20T11:28:39.648Z,54.97
2018-06-20T11:31:43.459Z,53.67
2018-06-20T11:34:47.105Z,52.02
2018-06-20T11:37:51.277Z,53.39
2018-06-20T11:40:54.883Z,54.63
2018-06-20T11:43:58.519Z,53.51
2018-06-20T11:47:07.429Z,55.93
2018-06-20T11:50:12.473Z,54.76
2018-06-20T11:53:16.109Z,52.99
2018-06-20T11:56:19.832Z,52.80
2018-06-20T11:59:28.882Z,54.00
2018-06-20T12:02:37.908Z,54.73
2018-06-20T12:05:46.850Z,55.57
2018-06-20T12:08:55.773Z,53.61
2018-06-20T12:12:04.703Z,52.45
2018-06-20T12:15:13.729Z,52.83
2018-06-20T12:18:22.715Z,52.94
2018-06-20T12:21:31.620Z,52.94
2018-06-20T12:24:40.568Z,52.93
2018-06-20T12:27:49.539Z,51.27
2018-06-20T12:30:58.508Z,51.20
2018-06-20T12:34:07.382Z,51.33
2018-06-20T12:37:16.184Z,51.85
2018-06-20T12:40:24.715Z,52.30
2018-06-20T12:43:33.743Z,52.93
2018-06-20T12:46:48.771Z,52.03
2018-06-20T12:49:56.990Z,52.39
2018-06-20T12:53:00.625Z,50.67
2018-06-20T12:56:04.264Z,51.52
2018-06-20T12:59:07.967Z,51.05
2018-06-20T13:02:11.571Z,51.64
2018-06-20T13:05:15.541Z,52.06
2018-06-20T13:08:19.296Z,52.44
2018-06-20T13:11:22.997Z,50.90
2018-06-20T13:14:26.645Z,52.51
2018-06-20T13:17:30.560Z,50.89
2018-06-20T13:20:34.157Z,51.13
2018-06-20T13:23:37.860Z,51.93
2018-06-20T13:26:41.599Z,52.19
2018-06-20T13:29:45.349Z,52.77
2018-06-20T13:32:54.316Z,52.94
2018-06-20T13:36:03.080Z,50.76
2018-06-20T13:39:13.189Z,50.25
2018-06-20T13:42:21.932Z,49.82
2018-06-20T13:45:30.779Z,51.24
2018-06-20T13:48:35.541Z,49.84
2018-06-20T13:51:39.126Z,49.48
2018-06-20T13:54:42.704Z,49.68
2018-06-20T13:57:46.314Z,48.90
2018-06-20T14:00:50.060Z,48.59
2018-06-20T14:03:53.676Z,48.18
2018-06-20T14:06:57.345Z,49.52
2018-06-20T14:10:00.957Z,48.94
2018-06-20T14:13:04.756Z,48.71
2018-06-20T14:16:08.400Z,48.55
2018-06-20T14:19:12.079Z,49.00
2018-06-20T14:22:15.780Z,47.94
2018-06-20T14:25:19.611Z,48.88
2018-06-20T14:28:23.290Z,45.82
2018-06-20T14:31:32.150Z,48.05
2018-06-20T14:34:40.984Z,48.25
2018-06-20T14:37:49.927Z,47.30
2018-06-20T14:40:58.747Z,47.98
2018-06-20T14:44:05.293Z,47.23
2018-06-20T14:47:08.948Z,46.73
2018-06-20T14:50:12.743Z,46.52
2018-06-20T14:53:16.356Z,47.62
2018-06-20T14:56:20.092Z,49.27
2018-06-20T14:59:23.786Z,49.58
2018-06-20T15:02:27.413Z,48.58
2018-06-20T15:05:31.162Z,47.60
2018-06-20T15:08:35.062Z,47.54
2018-06-20T15:11:39.152Z,46.39
2018-06-20T15:14:42.837Z,46.97
2018-06-20T15:17:46.515Z,47.87
2018-06-20T15:20:50.225Z,47.94
2018-06-20T15:23:54.062Z,48.10
2018-06-20T15:27:02.837Z,49.05
2018-06-20T15:30:12.730Z,47.04
2018-06-20T15:33:21.627Z,46.07
2018-06-20T15:36:30.440Z,46.70
2018-06-20T15:39:34.018Z,46.68
2018-06-20T15:42:37.828Z,47.17
2018-06-20T15:45:41.533Z,47.94
2018-06-20T15:48:45.786Z,47.78
2018-06-20T15:51:49.391Z,47.26
2018-06-20T15:54:53.045Z,48.42
2018-06-20T15:57:56.680Z,47.44
2018-06-20T16:01:00.345Z,47.68
2018-06-20T16:04:04.147Z,47.91
2018-06-20T16:07:07.859Z,47.91
2018-06-20T16:10:15.814Z,48.56
2018-06-20T16:13:19.502Z,49.12
2018-06-20T16:16:23.102Z,48.74
2018-06-20T16:19:31.942Z,48.61
2018-06-20T16:22:40.757Z,47.20
2018-06-20T16:25:49.796Z,47.91
2018-06-20T16:28:58.591Z,47.89
2018-06-20T16:32:02.256Z,47.80
2018-06-20T16:35:05.965Z,47.40
2018-06-20T16:38:09.625Z,47.73
2018-06-20T16:41:13.275Z,47.55
2018-06-20T16:44:16.985Z,48.53
2018-06-20T16:47:20.851Z,47.93
2018-06-20T16:50:24.618Z,47.47
2018-06-20T16:53:28.247Z,46.84
2018-06-20T16:56:32.070Z,45.78
2018-06-20T16:59:35.820Z,43.72
2018-06-20T17:02:40.943Z,43.05
2018-06-20T17:05:44.532Z,41.08
2018-06-20T17:08:48.233Z,41.12
2018-06-20T17:11:56.961Z,41.06
2018-06-20T17:15:05.773Z,41.64
2018-06-20T17:20:19.863Z,40.02
2018-06-20T17:23:28.995Z,39.03
2018-06-20T17:26:32.801Z,38.12
2018-06-20T17:29:36.471Z,37.59
2018-06-20T17:32:40.118Z,37.99
2018-06-20T17:35:43.832Z,36.78
2018-06-20T17:38:47.574Z,38.16
2018-06-20T17:41:51.258Z,37.24
2018-06-20T17:44:55.012Z,37.96
2018-06-20T17:47:58.687Z,36.95
2018-06-20T17:51:02.459Z,39.54
2018-06-20T17:54:06.351Z,38.51
2018-06-20T17:57:10.036Z,37.98
2018-06-20T18:00:13.746Z,37.84
2018-06-20T18:03:17.422Z,37.45
2018-06-20T18:06:26.306Z,37.38
2018-06-20T18:09:35.393Z,37.93
2018-06-20T18:12:44.245Z,40.92
2018-06-20T18:17:56.418Z,42.63
2018-06-20T18:21:00.166Z,45.05
2018-06-20T18:24:03.964Z,44.26
2018-06-20T18:27:07.633Z,43.81
2018-06-20T18:30:11.363Z,43.83
2018-06-20T18:33:15.025Z,44.17
2018-06-20T18:36:18.817Z,45.33
2018-06-20T18:39:22.553Z,46.57
2018-06-20T18:42:26.253Z,47.51
2018-06-20T18:45:29.920Z,47.91
2018-06-20T18:48:33.664Z,48.39
2018-06-20T18:51:37.273Z,49.29
2018-06-20T18:54:41.143Z,49.49
2018-06-20T18:57:49.813Z,49.91
2018-06-20T19:00:58.567Z,50.37
2018-06-20T19:04:07.545Z,50.31
2018-06-20T19:07:16.528Z,50.75
2018-06-20T19:10:20.499Z,51.25
2018-06-20T19:13:24.247Z,51.96
2018-06-20T19:16:27.929Z,52.06
2018-06-20T19:19:31.908Z,52.45
2018-06-20T19:22:35.677Z,52.11
2018-06-20T19:25:39.504Z,52.81
2018-06-20T19:28:43.162Z,53.15
2018-06-20T19:31:47.031Z,53.74
2018-06-20T19:34:50.790Z,53.93
2018-06-20T19:37:54.454Z,53.76
2018-06-20T19:40:58.178Z,53.86
2018-06-20T19:44:06.962Z,54.03
2018-06-20T19:47:10.829Z,53.47
2018-06-20T19:50:14.538Z,54.33
2018-06-20T19:53:18.245Z,53.99
2018-06-20T19:56:21.984Z,54.29
2018-06-20T19:59:25.709Z,54.40
2018-06-20T20:02:29.509Z,54.38
2018-06-20T20:05:33.240Z,55.05
2018-06-20T20:08:37.056Z,55.71
2018-06-20T20:11:40.809Z,55.84
2018-06-20T20:14:44.450Z,57.33
2018-06-20T20:17:48.270Z,56.98
2018-06-20T20:20:51.993Z,57.47
2018-06-20T20:23:55.831Z,57.32
2018-06-20T20:26:59.676Z,57.79
2018-06-20T20:30:03.411Z,57.68
2018-06-20T20:33:07.093Z,58.07
2018-06-20T20:36:10.853Z,58.43
2018-06-20T20:39:14.549Z,58.77
2018-06-20T20:42:18.239Z,58.75
2018-06-20T20:45:21.902Z,59.14
2018-06-20T20:48:25.580Z,59.33
2018-06-20T20:51:29.269Z,59.36
2018-06-20T20:54:32.995Z,59.62
2018-06-20T20:57:36.742Z,59.76
2018-06-20T21:00:40.559Z,60.93
2018-06-20T21:03:44.459Z,61.26
2018-06-20T21:06:48.239Z,61.10
2018-06-20T21:09:52.074Z,61.45
2018-06-20T21:12:55.799Z,61.95
2018-06-20T21:15:59.437Z,62.15
2018-06-20T21:19:03.115Z,63.07
2018-06-20T21:22:07.029Z,63.15
2018-06-20T21:25:10.883Z,63.94
2018-06-20T21:28:14.540Z,64.37
2018-06-20T21:31:18.285Z,65.09
2018-06-20T21:34:22.033Z,65.32
2018-06-20T21:37:25.826Z,66.06
2018-06-20T21:40:29.473Z,66.92
2018-06-20T21:43:33.194Z,67.57
2018-06-20T21:46:36.889Z,67.08
2018-06-20T21:49:40.650Z,67.80
2018-06-20T21:52:44.361Z,68.07
2018-06-20T21:55:48.014Z,68.44
2018-06-20T21:58:51.729Z,68.12
2018-06-20T22:01:55.518Z,68.36
2018-06-20T22:08:25.656Z,68.40
2018-06-20T22:11:33.535Z,67.67
2018-06-20T22:14:37.210Z,67.76
2018-06-20T22:17:41.001Z,67.89
2018-06-20T22:20:44.694Z,68.38
2018-06-20T22:23:48.438Z,68.44
2018-06-20T22:26:52.048Z,68.48
2018-06-20T22:29:55.859Z,68.96
2018-06-20T22:32:59.776Z,69.37
2018-06-20T22:36:03.559Z,69.09
2018-06-20T22:39:09.055Z,69.30
2018-06-20T22:42:12.776Z,69.28
2018-06-20T22:45:16.548Z,69.50
2018-06-20T22:48:20.264Z,70.05
2018-06-20T22:51:23.924Z,70.38
2018-06-20T22:54:27.659Z,69.50
2018-06-20T22:57:31.259Z,70.34
2018-06-20T23:00:34.851Z,70.30
2018-06-20T23:03:38.488Z,70.72
2018-06-20T23:06:42.203Z,70.96
2018-06-20T23:09:45.825Z,70.41
2018-06-20T23:12:49.538Z,71.21
2018-06-20T23:15:53.121Z,70.91
2018-06-20T23:18:56.759Z,71.82
2018-06-20T23:22:00.630Z,71.58
2018-06-20T23:25:04.419Z,70.78
2018-06-20T23:28:08.084Z,71.56
2018-06-20T23:31:11.746Z,72.04
2018-06-20T23:34:15.316Z,71.82
2018-06-20T23:37:18.941Z,71.98
2018-06-20T23:40:22.558Z,72.33
2018-06-20T23:43:26.264Z,72.95
2018-06-20T23:46:29.867Z,72.98
2018-06-20T23:49:33.509Z,73.09
2018-06-20T23:52:37.231Z,73.62
2018-06-20T23:55:40.775Z,73.17
2018-06-20T23:58:44.440Z,73.30
